createdAt,value
2022-08-03T00:01:16.559Z,47.06
2022-08-03T00:03:43.521Z,47.10
2022-08-03T00:06:10.580Z,47.12
2022-08-03T00:08:37.674Z,47.07
2022-08-03T00:11:07.053Z,47.46
2022-08-03T00:13:36.815Z,47.49
2022-08-03T00:16:03.540Z,47.46
2022-08-03T00:18:30.025Z,47.33
2022-08-03T00:20:56.598Z,47.42
2022-08-03T00:23:23.116Z,47.50
2022-08-03T00:25:49.633Z,47.72
2022-08-03T00:28:17.129Z,47.74
2022-08-03T00:30:45.001Z,47.43
2022-08-03T00:33:11.564Z,47.55
2022-08-03T00:35:50.978Z,47.60
2022-08-03T00:45:08.651Z,47.67
2022-08-03T00:47:35.159Z,47.71
2022-08-03T00:50:01.775Z,47.51
2022-08-03T00:56:08.582Z,47.46
2022-08-03T01:01:47.385Z,47.61
2022-08-03T01:04:13.915Z,47.79
2022-08-03T01:06:48.094Z,47.38
2022-08-03T01:09:29.396Z,47.51
2022-08-03T01:12:03.987Z,47.61
2022-08-03T01:15:04.530Z,47.27
2022-08-03T01:17:52.106Z,47.60
2022-08-03T01:20:21.030Z,47.62
2022-08-03T01:23:06.299Z,47.71
2022-08-03T01:25:54.542Z,47.73
2022-08-03T01:28:59.840Z,47.65
2022-08-03T01:31:29.763Z,48.14
2022-08-03T01:34:00.305Z,48.70
2022-08-03T01:36:32.831Z,48.77
2022-08-03T01:39:02.142Z,48.76
2022-08-03T01:41:59.685Z,48.51
2022-08-03T01:44:30.925Z,48.49
2022-08-03T01:47:00.084Z,48.43
2022-08-03T01:49:32.483Z,48.61
2022-08-03T01:52:03.976Z,48.02
2022-08-03T01:54:37.218Z,48.14
2022-08-03T01:57:04.150Z,48.43
2022-08-03T01:59:32.886Z,48.36
2022-08-03T02:02:31.886Z,48.69
2022-08-03T02:04:47.425Z,48.66
2022-08-03T02:07:15.128Z,48.61
2022-08-03T02:09:44.353Z,48.74
2022-08-03T02:12:12.219Z,49.01
2022-08-03T02:15:00.269Z,48.77
2022-08-03T02:17:40.135Z,48.47
2022-08-03T02:20:11.767Z,48.87
2022-08-03T02:22:42.581Z,49.01
2022-08-03T02:25:15.892Z,49.07
2022-08-03T02:28:07.018Z,49.03
2022-08-03T02:30:38.584Z,48.41
2022-08-03T02:33:12.888Z,48.79
2022-08-03T02:35:39.970Z,48.78
2022-08-03T02:38:08.289Z,48.57
2022-08-03T02:40:36.001Z,48.67
2022-08-03T02:43:09.314Z,48.88
2022-08-03T02:45:36.983Z,48.25
2022-08-03T02:48:05.491Z,48.36
2022-08-03T02:50:33.766Z,48.40
2022-08-03T02:53:01.932Z,48.78
2022-08-03T02:55:29.065Z,48.52
2022-08-03T02:57:57.403Z,48.64
2022-08-03T03:00:28.716Z,48.97
2022-08-03T03:03:02.180Z,48.73
2022-08-03T03:05:55.790Z,48.79
2022-08-03T03:08:18.965Z,48.91
2022-08-03T03:10:47.848Z,48.73
2022-08-03T03:13:15.625Z,48.75
2022-08-03T03:15:42.345Z,49.09
2022-08-03T03:18:10.072Z,49.25
2022-08-03T03:20:37.664Z,49.87
2022-08-03T03:23:05.144Z,49.92
2022-08-03T03:25:33.595Z,49.77
2022-08-03T03:28:01.362Z,50.40
2022-08-03T03:30:30.009Z,50.05
2022-08-03T03:32:58.462Z,50.59
2022-08-03T03:35:26.566Z,50.95
2022-08-03T03:37:54.615Z,51.11
2022-08-03T03:40:22.120Z,51.01
2022-08-03T03:42:49.686Z,51.20
2022-08-03T03:45:16.380Z,51.33
2022-08-03T03:47:42.926Z,51.23
2022-08-03T03:50:10.904Z,50.83
2022-08-03T03:52:37.699Z,51.05
2022-08-03T03:55:04.454Z,51.18
2022-08-03T03:57:31.022Z,50.78
2022-08-03T03:59:57.830Z,50.86
2022-08-03T04:02:24.382Z,51.26
2022-08-03T04:05:10.569Z,51.43
2022-08-03T04:08:10.330Z,51.33
2022-08-03T04:10:57.887Z,51.70
2022-08-03T04:13:26.110Z,51.74
2022-08-03T04:15:53.598Z,51.89
2022-08-03T04:18:20.933Z,52.11
2022-08-03T04:20:48.883Z,52.35
2022-08-03T04:23:17.602Z,51.99
2022-08-03T04:25:51.344Z,52.02
2022-08-03T04:28:30.673Z,52.23
2022-08-03T04:30:59.855Z,52.50
2022-08-03T04:33:29.717Z,52.21
2022-08-03T04:36:01.438Z,52.51
2022-08-03T04:38:31.834Z,52.15
2022-08-03T04:40:59.400Z,52.23
2022-08-03T04:43:26.224Z,52.75
2022-08-03T04:45:54.507Z,52.63
2022-08-03T04:48:21.273Z,52.66
2022-08-03T04:50:48.179Z,53.07
2022-08-03T04:53:16.020Z,53.26
2022-08-03T04:55:42.524Z,52.90
2022-08-03T04:58:09.053Z,53.32
2022-08-03T05:00:35.594Z,53.60
2022-08-03T05:03:02.025Z,53.95
2022-08-03T05:05:34.656Z,54.31
2022-08-03T05:08:14.900Z,53.86
2022-08-03T05:10:41.366Z,53.86
2022-08-03T05:13:11.964Z,53.74
2022-08-03T05:15:42.964Z,53.99
2022-08-03T05:18:13.909Z,54.12
2022-08-03T05:20:40.877Z,54.49
2022-08-03T05:23:07.362Z,54.41
2022-08-03T05:25:33.807Z,54.57
2022-08-03T05:28:00.251Z,54.70
2022-08-03T05:30:33.797Z,54.60
2022-08-03T05:33:02.128Z,54.74
2022-08-03T05:36:03.608Z,54.59
2022-08-03T05:38:28.319Z,54.57
2022-08-03T05:41:21.559Z,54.67
2022-08-03T05:43:43.832Z,54.74
2022-08-03T05:46:12.389Z,54.75
2022-08-03T05:48:39.940Z,54.89
2022-08-03T05:51:07.659Z,55.02
2022-08-03T05:53:34.770Z,55.06
2022-08-03T05:56:13.219Z,55.10
2022-08-03T05:58:42.077Z,55.37
2022-08-03T06:01:08.564Z,55.30
2022-08-03T06:03:35.088Z,54.83
2022-08-03T06:06:01.599Z,54.78
2022-08-03T06:08:28.277Z,55.18
2022-08-03T06:10:55.114Z,54.82
2022-08-03T06:13:22.010Z,55.19
2022-08-03T06:15:48.501Z,54.94
2022-08-03T06:18:14.936Z,55.08
2022-08-03T06:20:41.401Z,55.17
2022-08-03T06:23:08.106Z,55.39
2022-08-03T06:25:42.988Z,54.94
2022-08-03T06:28:12.141Z,55.03
2022-08-03T06:30:50.886Z,54.84
2022-08-03T06:33:17.486Z,55.36
2022-08-03T06:35:45.176Z,55.46
2022-08-03T06:38:12.930Z,55.74
2022-08-03T06:40:42.391Z,54.98
2022-08-03T06:43:12.445Z,55.32
2022-08-03T06:45:39.431Z,55.39
2022-08-03T06:48:11.093Z,55.63
2022-08-03T06:50:38.834Z,55.24
2022-08-03T06:53:05.750Z,55.28
2022-08-03T06:55:32.395Z,55.03
2022-08-03T06:58:00.088Z,54.68
2022-08-03T07:00:30.833Z,54.78
2022-08-03T07:02:58.427Z,54.31
2022-08-03T07:05:25.217Z,54.36
2022-08-03T07:07:55.706Z,53.83
2022-08-03T07:10:22.171Z,53.70
2022-08-03T07:12:56.184Z,54.13
2022-08-03T07:15:55.271Z,54.08
2022-08-03T07:18:10.065Z,53.66
2022-08-03T07:20:36.674Z,54.09
2022-08-03T07:23:03.312Z,54.55
2022-08-03T07:25:29.766Z,54.29
2022-08-03T07:27:56.345Z,54.38
2022-08-03T07:30:22.965Z,54.17
2022-08-03T07:32:50.463Z,53.37
2022-08-03T07:35:24.498Z,52.45
2022-08-03T07:37:54.645Z,52.11
2022-08-03T07:40:21.976Z,51.50
2022-08-03T07:42:48.513Z,51.56
2022-08-03T07:45:19.730Z,51.35
2022-08-03T07:47:53.334Z,50.67
2022-08-03T07:50:20.696Z,49.81
2022-08-03T07:52:50.717Z,49.52
2022-08-03T07:55:22.811Z,48.89
2022-08-03T07:58:09.775Z,48.56
2022-08-03T08:00:36.719Z,48.27
2022-08-03T08:03:03.802Z,48.49
2022-08-03T08:05:30.577Z,47.98
2022-08-03T08:07:57.082Z,47.77
2022-08-03T08:10:23.925Z,47.79
2022-08-03T08:12:50.545Z,47.62
2022-08-03T08:15:17.035Z,47.32
2022-08-03T08:17:48.339Z,47.22
2022-08-03T08:20:28.252Z,47.33
2022-08-03T08:22:59.074Z,47.29
2022-08-03T08:25:28.836Z,46.63
2022-08-03T08:28:22.172Z,46.17
2022-08-03T08:30:41.806Z,46.11
2022-08-03T08:33:08.695Z,46.61
2022-08-03T08:35:49.380Z,47.26
2022-08-03T08:38:15.840Z,47.09
2022-08-03T08:40:42.381Z,46.02
2022-08-03T08:43:08.861Z,44.96
2022-08-03T08:45:35.605Z,44.24
2022-08-03T08:48:07.850Z,44.12
2022-08-03T08:50:35.257Z,43.94
2022-08-03T08:53:03.663Z,43.58
2022-08-03T08:55:59.755Z,43.23
2022-08-03T08:58:20.853Z,43.34
2022-08-03T09:00:48.482Z,42.53
2022-08-03T09:03:26.175Z,42.98
2022-08-03T09:05:59.153Z,42.44
2022-08-03T09:08:25.815Z,42.67
2022-08-03T09:10:52.358Z,42.37
2022-08-03T09:13:19.018Z,42.81
2022-08-03T09:16:01.273Z,42.29
2022-08-03T09:18:32.326Z,42.58
2022-08-03T09:21:31.704Z,42.30
2022-08-03T09:24:02.739Z,42.38
2022-08-03T09:26:31.122Z,41.67
2022-08-03T09:29:04.090Z,41.51
2022-08-03T09:31:43.268Z,41.95
2022-08-03T09:34:12.265Z,41.60
2022-08-03T09:36:43.747Z,41.27
2022-08-03T09:39:17.337Z,41.78
2022-08-03T09:41:46.125Z,41.54
2022-08-03T09:44:24.075Z,41.39
2022-08-03T09:46:56.619Z,41.03
2022-08-03T09:49:24.394Z,40.67
2022-08-03T09:52:31.569Z,40.74
2022-08-03T09:54:38.113Z,40.10
2022-08-03T09:57:04.691Z,40.25
2022-08-03T09:59:32.758Z,40.16
2022-08-03T10:01:59.998Z,40.23
2022-08-03T10:04:26.784Z,39.65
2022-08-03T10:07:07.633Z,39.49
2022-08-03T10:09:34.118Z,39.00
2022-08-03T10:12:09.647Z,38.63
2022-08-03T10:14:38.266Z,38.95
2022-08-03T10:17:05.254Z,38.89
2022-08-03T10:19:31.956Z,38.71
2022-08-03T10:22:04.056Z,38.30
2022-08-03T10:24:30.870Z,38.64
2022-08-03T10:27:02.808Z,38.12
2022-08-03T10:29:37.645Z,38.00
2022-08-03T10:32:05.529Z,38.12
2022-08-03T10:34:35.122Z,38.11
2022-08-03T10:37:05.386Z,37.66
2022-08-03T10:39:31.942Z,38.00
2022-08-03T10:41:59.882Z,37.92
2022-08-03T10:44:33.702Z,37.35
2022-08-03T10:47:00.816Z,37.69
2022-08-03T10:49:34.264Z,37.19
2022-08-03T10:52:12.826Z,37.58
2022-08-03T10:55:03.100Z,37.26
2022-08-03T10:57:45.796Z,37.37
2022-08-03T11:00:21.634Z,37.16
2022-08-03T11:03:14.462Z,36.09
2022-08-03T11:05:42.855Z,35.96
2022-08-03T11:08:21.480Z,36.14
2022-08-03T11:10:49.076Z,36.93
2022-08-03T11:13:17.780Z,36.15
2022-08-03T11:15:46.294Z,36.25
2022-08-03T11:18:13.130Z,35.74
2022-08-03T11:20:46.754Z,35.70
2022-08-03T11:23:13.904Z,35.50
2022-08-03T11:26:10.248Z,34.95
2022-08-03T11:28:38.870Z,34.97
2022-08-03T11:31:48.254Z,35.21
2022-08-03T11:34:11.701Z,34.63
2022-08-03T11:37:16.118Z,35.13
2022-08-03T11:39:45.674Z,34.52
2022-08-03T11:42:24.075Z,34.29
2022-08-03T11:44:51.843Z,33.75
2022-08-03T11:47:50.156Z,33.86
2022-08-03T11:50:19.166Z,33.72
2022-08-03T11:52:45.716Z,34.13
2022-08-03T11:55:14.084Z,33.34
2022-08-03T11:58:58.106Z,33.39
2022-08-03T12:00:32.287Z,33.67
2022-08-03T12:03:14.152Z,33.68
2022-08-03T12:05:52.793Z,33.44
2022-08-03T12:08:19.296Z,33.40
2022-08-03T12:10:48.050Z,32.85
2022-08-03T12:14:37.373Z,32.96
2022-08-03T12:16:02.212Z,32.63
2022-08-03T12:18:28.754Z,32.75
2022-08-03T12:21:07.492Z,32.96
2022-08-03T12:23:37.638Z,32.62
2022-08-03T12:26:09.862Z,32.61
2022-08-03T12:28:38.342Z,32.68
2022-08-03T12:31:07.279Z,32.85
2022-08-03T12:33:53.566Z,32.82
2022-08-03T12:36:20.037Z,32.59
2022-08-03T12:38:55.110Z,32.52
2022-08-03T12:41:35.080Z,32.43
2022-08-03T12:44:03.469Z,32.30
2022-08-03T12:46:45.384Z,32.55
2022-08-03T12:49:15.869Z,32.60
2022-08-03T12:51:42.215Z,31.71
2022-08-03T12:54:10.099Z,31.59
2022-08-03T12:57:05.206Z,31.55
2022-08-03T12:59:52.543Z,31.43
2022-08-03T13:02:24.764Z,31.33
2022-08-03T13:04:53.525Z,31.61
2022-08-03T13:07:48.318Z,31.29
2022-08-03T13:10:28.823Z,31.48
2022-08-03T13:12:58.500Z,31.25
2022-08-03T13:15:26.594Z,31.39
2022-08-03T13:18:00.076Z,31.50
2022-08-03T13:20:26.708Z,31.25
2022-08-03T13:22:54.035Z,31.40
2022-08-03T13:25:23.201Z,31.40
2022-08-03T13:28:04.232Z,31.14
2022-08-03T13:30:32.100Z,31.19
2022-08-03T13:33:00.354Z,31.02
2022-08-03T13:35:26.973Z,31.20
2022-08-03T13:37:53.523Z,30.87
2022-08-03T13:40:20.094Z,30.79
2022-08-03T13:42:50.253Z,30.68
2022-08-03T13:45:16.719Z,30.63
2022-08-03T13:47:43.195Z,30.99
2022-08-03T13:50:09.673Z,30.54
2022-08-03T13:52:36.438Z,30.88
2022-08-03T13:55:04.972Z,30.29
2022-08-03T13:58:04.434Z,30.43
2022-08-03T14:00:27.006Z,30.61
2022-08-03T14:03:15.372Z,30.51
2022-08-03T14:05:42.835Z,30.20
2022-08-03T14:08:09.766Z,29.85
2022-08-03T14:10:38.045Z,29.96
2022-08-03T14:13:05.361Z,29.67
2022-08-03T14:15:31.886Z,29.41
2022-08-03T14:18:12.998Z,30.05
2022-08-03T14:20:49.080Z,30.11
2022-08-03T14:23:17.320Z,30.41
2022-08-03T14:25:52.425Z,30.13
2022-08-03T14:28:23.633Z,29.57
2022-08-03T14:30:58.959Z,29.90
2022-08-03T14:33:43.959Z,29.62
2022-08-03T14:36:13.305Z,30.15
2022-08-03T14:38:39.854Z,29.84
2022-08-03T14:41:19.838Z,29.70
2022-08-03T14:44:01.551Z,29.45
2022-08-03T14:46:29.374Z,29.27
2022-08-03T14:50:37.186Z,29.79
2022-08-03T14:51:54.018Z,29.18
2022-08-03T14:54:21.084Z,29.75
2022-08-03T14:56:48.674Z,29.53
2022-08-03T14:59:27.664Z,29.66
2022-08-03T15:02:23.775Z,28.60
2022-08-03T15:04:57.842Z,29.28
2022-08-03T15:07:24.534Z,29.19
2022-08-03T15:10:02.365Z,29.16
2022-08-03T15:12:29.216Z,29.23
2022-08-03T15:14:56.322Z,29.75
2022-08-03T15:17:22.758Z,29.22
2022-08-03T15:20:00.818Z,28.76
2022-08-03T15:22:39.433Z,29.06
2022-08-03T15:26:01.649Z,28.84
2022-08-03T15:28:03.874Z,29.22
2022-08-03T15:33:44.604Z,29.19
2022-08-03T15:36:16.138Z,28.95
2022-08-03T15:38:48.376Z,29.10
2022-08-03T15:41:17.901Z,29.34
2022-08-03T15:43:56.904Z,29.38
2022-08-03T15:46:30.762Z,29.38
2022-08-03T15:48:57.297Z,29.52
2022-08-03T15:51:23.748Z,29.92
2022-08-03T15:53:57.269Z,29.07
2022-08-03T15:56:23.764Z,29.36
2022-08-03T15:59:11.278Z,29.14
2022-08-03T16:01:41.384Z,29.73
2022-08-03T16:04:07.872Z,29.23
2022-08-03T16:06:36.069Z,28.84
2022-08-03T16:09:23.712Z,29.23
2022-08-03T16:11:53.590Z,29.43
2022-08-03T16:14:34.325Z,28.76
2022-08-03T16:17:07.621Z,28.85
2022-08-03T16:19:34.191Z,28.81
2022-08-03T16:22:02.181Z,29.19
2022-08-03T16:24:29.730Z,29.71
2022-08-03T16:27:05.248Z,29.49
2022-08-03T16:29:34.428Z,29.44
2022-08-03T16:32:15.298Z,29.44
2022-08-03T16:34:43.079Z,29.13
2022-08-03T16:37:37.035Z,28.88
2022-08-03T16:40:19.266Z,29.17
2022-08-03T16:42:49.754Z,29.73
2022-08-03T16:45:16.598Z,29.17
2022-08-03T16:47:43.071Z,29.34
2022-08-03T16:50:17.450Z,29.55
2022-08-03T16:52:47.476Z,29.43
2022-08-03T16:55:18.334Z,29.19
2022-08-03T16:58:02.786Z,29.38
2022-08-03T17:00:34.162Z,29.24
2022-08-03T17:03:04.080Z,29.30
2022-08-03T17:05:43.661Z,29.54
2022-08-03T17:08:13.569Z,29.21
2022-08-03T17:10:44.586Z,29.34
2022-08-03T17:13:22.082Z,28.96
2022-08-03T17:16:29.743Z,28.94
2022-08-03T17:18:57.550Z,29.01
2022-08-03T17:21:30.881Z,29.26
2022-08-03T17:24:12.362Z,29.38
2022-08-03T17:26:44.963Z,29.82
2022-08-03T17:29:13.174Z,29.78
2022-08-03T17:31:49.792Z,29.93
2022-08-03T17:34:17.549Z,29.98
2022-08-03T17:39:56.858Z,30.59
2022-08-03T17:42:30.634Z,30.96
2022-08-03T17:45:01.762Z,30.36
2022-08-03T17:47:41.769Z,29.67
2022-08-03T17:50:23.911Z,30.31
2022-08-03T17:53:07.125Z,30.41
2022-08-03T17:55:57.534Z,30.58
2022-08-03T17:58:54.689Z,30.76
2022-08-03T18:02:00.420Z,31.00
2022-08-03T18:04:33.950Z,31.19
2022-08-03T18:07:11.874Z,31.53
2022-08-03T18:10:05.690Z,32.65
2022-08-03T18:12:28.999Z,32.44
2022-08-03T18:15:01.169Z,32.31
2022-08-03T18:17:55.179Z,32.72
2022-08-03T18:20:34.548Z,33.09
2022-08-03T18:23:05.492Z,33.49
2022-08-03T18:25:45.657Z,34.25
2022-08-03T18:28:18.850Z,34.39
2022-08-03T18:30:53.936Z,34.84
2022-08-03T18:34:19.156Z,34.61
2022-08-03T18:36:17.428Z,34.83
2022-08-03T18:38:47.328Z,35.23
2022-08-03T18:41:20.536Z,34.82
2022-08-03T18:44:08.203Z,34.86
2022-08-03T18:47:16.266Z,35.32
2022-08-03T18:50:12.137Z,35.13
2022-08-03T18:55:39.538Z,35.61
2022-08-03T18:58:34.379Z,36.01
2022-08-03T19:01:15.217Z,36.22
2022-08-03T19:04:00.422Z,36.59
2022-08-03T19:06:29.632Z,36.95
2022-08-03T19:09:12.832Z,37.52
2022-08-03T19:12:14.123Z,37.50
2022-08-03T19:14:35.312Z,37.73
2022-08-03T19:17:08.564Z,38.08
2022-08-03T19:19:43.960Z,37.98
2022-08-03T19:22:22.934Z,38.62
2022-08-03T19:24:51.410Z,38.69
2022-08-03T20:55:47.563Z,42.60
2022-08-03T20:58:08.080Z,42.21
2022-08-03T21:00:34.633Z,42.72
2022-08-03T21:03:01.385Z,42.65
2022-08-03T21:05:47.777Z,42.76
2022-08-03T21:08:15.772Z,42.77
2022-08-03T21:10:42.936Z,42.72
2022-08-03T21:13:09.559Z,35.46
2022-08-03T21:13:25.156Z,42.67
2022-08-03T21:16:11.386Z,42.54
2022-08-03T21:18:50.001Z,42.95
2022-08-03T21:21:18.742Z,42.71
2022-08-03T21:23:52.635Z,43.13
2022-08-03T21:26:22.368Z,42.72
2022-08-03T21:28:50.708Z,42.83
2022-08-03T21:31:24.931Z,43.11
2022-08-03T21:33:57.606Z,42.77
2022-08-03T21:36:26.190Z,42.67
2022-08-03T21:38:56.154Z,43.01
2022-08-03T21:41:25.905Z,42.87
2022-08-03T21:43:52.511Z,42.97
2022-08-03T21:46:19.913Z,43.29
2022-08-03T21:48:48.547Z,43.18
2022-08-03T21:51:17.398Z,43.37
2022-08-03T21:54:03.355Z,43.34
2022-08-03T21:56:36.782Z,43.29
2022-08-03T21:59:06.881Z,43.60
2022-08-03T22:01:41.536Z,44.11
2022-08-03T22:04:09.326Z,43.88
2022-08-03T22:06:42.334Z,44.34
2022-08-03T22:09:09.106Z,44.22
2022-08-03T22:11:37.646Z,44.28
2022-08-03T22:14:04.947Z,44.69
2022-08-03T22:23:50.742Z,44.95
2022-08-03T22:26:32.263Z,44.90
2022-08-03T22:29:12.496Z,44.76
2022-08-03T22:31:58.837Z,44.88
2022-08-03T22:34:27.165Z,45.00
2022-08-03T22:37:00.073Z,44.75
2022-08-03T22:39:28.669Z,45.05
2022-08-03T22:45:09.247Z,45.25
2022-08-03T22:47:37.286Z,45.30
2022-08-03T22:50:35.696Z,45.28
2022-08-03T22:53:04.606Z,45.00
2022-08-03T22:55:31.088Z,45.36
2022-08-03T22:57:57.847Z,45.08
2022-08-03T23:00:24.833Z,45.29
2022-08-03T23:02:52.840Z,45.06
2022-08-03T23:06:00.725Z,45.21
2022-08-03T23:08:21.749Z,44.72
2022-08-03T23:10:48.977Z,45.18
2022-08-03T23:13:17.436Z,45.24
2022-08-03T23:15:51.696Z,44.70
2022-08-03T23:18:19.413Z,44.95
2022-08-03T23:20:46.475Z,44.67
2022-08-03T23:23:16.663Z,44.95
2022-08-03T23:25:47.846Z,45.10
2022-08-03T23:28:16.573Z,45.16
2022-08-03T23:30:47.549Z,45.01
2022-08-03T23:33:14.925Z,45.06
2022-08-03T23:36:22.700Z,45.28
2022-08-03T23:38:48.504Z,45.09
2022-08-03T23:41:33.301Z,45.45
2022-08-03T23:44:01.217Z,45.55
2022-08-03T23:46:30.306Z,45.69
2022-08-03T23:48:58.310Z,45.78
2022-08-03T23:52:02.420Z,45.85
2022-08-03T23:55:02.879Z,45.94
2022-08-03T23:57:34.502Z,45.96
